This is the latest recevied weather packets stored in our database for station/object VE3VGJ. If no packets are shown the sender has not sent any weather packets the latest 10 day(s).
| Time | Temp. | Humidity | Pressure | Rain* | Wind** | Luminosity | Snow |
|---|---|---|---|---|---|---|---|
| 1777938590 | 15° C | 47% | 1000.9 hPa | 0 mm | - | 20 W/m² | - |
| 1777938288 | 15° C | 48% | 1001.2 hPa | 0 mm | - | 25 W/m² | - |
| 1777937984 | 15.56° C | 48% | 1001.1 hPa | 0 mm | - | 31 W/m² | - |
| 1777937680 | 15.56° C | 47% | 1001.3 hPa | 0 mm | - | 36 W/m² | - |
| 1777937377 | 15.56° C | 48% | 1001.3 hPa | 0 mm | - | 40 W/m² | - |
| 1777937074 | 15.56° C | 48% | 1001.2 hPa | 0 mm | - | 47 W/m² | - |
| 1777936771 | 15.56° C | 48% | 1001 hPa | 0 mm | - | 63 W/m² | - |
| 1777936467 | 15.56° C | 48% | 1001 hPa | 0 mm | - | 67 W/m² | - |
| 1777936164 | 16.67° C | 47% | 1001.3 hPa | 0 mm | - | 76 W/m² | - |
| 1777935861 | 16.67° C | 46% | 1000.9 hPa | 0 mm | - | 91 W/m² | - |
| 1777935560 | 16.67° C | 47% | 1000.9 hPa | 0 mm | - | 104 W/m² | - |
| 1777935256 | 16.67° C | 46% | 1000.8 hPa | 0 mm | - | 106 W/m² | - |
| 1777934954 | 17.22° C | 45% | 1000.8 hPa | 0 mm | - | 114 W/m² | - |
| 1777934650 | 16.67° C | 46% | 1000.9 hPa | 0 mm | - | 112 W/m² | - |
| 1777934347 | 16.11° C | 47% | 1001.1 hPa | 0 mm | - | 110 W/m² | - |
| 1777934042 | 17.22° C | 44% | 1001 hPa | 0 mm | - | 115 W/m² | - |
| 1777933739 | 17.22° C | 45% | 1001.2 hPa | 0 mm | - | 124 W/m² | - |
| 1777933436 | 17.22° C | 45% | 1001.1 hPa | 0 mm | - | 165 W/m² | - |
| 1777933134 | 16.67° C | 47% | 1001.3 hPa | 0 mm | - | 181 W/m² | - |
| 1777932831 | 17.22° C | 46% | 1001.4 hPa | 0 mm | - | 180 W/m² | - |
| 1777932528 | 17.22° C | 45% | 1001.1 hPa | 0 mm | - | 201 W/m² | - |
| 1777932224 | 17.78° C | 45% | 1001.1 hPa | 0 mm | - | 231 W/m² | - |
| 1777931922 | 18.33° C | 43% | 1001.1 hPa | 0 mm | - | 230 W/m² | - |
| 1777931618 | 18.33° C | 43% | 1001.3 hPa | 0 mm | - | 219 W/m² | - |
| 1777931314 | 18.33° C | 45% | 1001.3 hPa | 0 mm | - | 290 W/m² | - |
* Rain latest hour (hover to see other rain measurements)
** Current wind speed in m/s (hover to see current wind gust speed)